Balti International Airport Strymba MD
ICAO: LUBL
IATA: BZY
Category: Medium
Scheduled Services: No

Elevation: 758 ft
TransAlt. 4000 ft.

Airport Communications:
TWR:122.3

LUBL Zoom In..

If you have problems with the map follow the link
https://www.worldairports.se/pages/airport.php?
ICAO=LUBL

Runways:

(A) RW 15 length 7349 ft width 138 ft
---- / hdg 147

(B) RW 33 length 7349 ft width 138 ft
ILS 110.90 / hdg 327

Location; LUBL
Day. 26 / Time. 09.30 Zulu
* QNH: 1019
* Temperature: 27° c. 80.6°f.
* Wind from: 110° Speed 05 kn.
Dewpoint: 10° c.
Visibility: 10 km or more.
Clouds: Broken 4000 ft.

LUBL 260930Z 11005KT 060V150 9999 BKN040 27/10 Q1019 R25/CLRD65


Wind From 110°
Speed 05 kn.

 
 
jpsmedia worldairports.se 2020   terms of use